createdAt,value
2023-05-13T00:02:21.144Z,18.48
2023-05-13T00:04:47.508Z,18.45
2023-05-13T00:07:13.867Z,18.43
2023-05-13T00:09:40.175Z,18.39
2023-05-13T00:12:06.654Z,18.36
2023-05-13T00:14:33.321Z,18.32
2023-05-13T00:16:59.633Z,18.29
2023-05-13T00:19:25.905Z,18.26
2023-05-13T00:21:52.316Z,18.22
2023-05-13T00:24:18.621Z,18.19
2023-05-13T00:26:44.942Z,18.12
2023-05-13T00:29:11.328Z,18.07
2023-05-13T00:31:37.814Z,18.02
2023-05-13T00:34:04.337Z,17.98
2023-05-13T00:36:30.706Z,17.95
2023-05-13T00:38:57.254Z,17.91
2023-05-13T00:41:23.645Z,17.86
2023-05-13T00:43:49.992Z,17.74
2023-05-13T00:46:17.285Z,17.77
2023-05-13T00:48:43.717Z,17.75
2023-05-13T00:51:10.035Z,17.71
2023-05-13T00:53:36.637Z,17.66
2023-05-13T00:56:02.954Z,17.61
2023-05-13T00:58:29.335Z,17.56
2023-05-13T01:00:55.693Z,17.52
2023-05-13T01:03:22.115Z,17.48
2023-05-13T01:05:48.445Z,17.44
2023-05-13T01:08:14.705Z,17.41
2023-05-13T01:10:41.199Z,17.38
2023-05-13T01:13:07.461Z,17.33
2023-05-13T01:15:33.841Z,17.31
2023-05-13T01:18:00.386Z,17.28
2023-05-13T01:20:26.703Z,17.32
2023-05-13T01:22:53.388Z,17.32
2023-05-13T01:25:19.662Z,17.27
2023-05-13T01:27:46.029Z,17.23
2023-05-13T01:30:12.499Z,17.19
2023-05-13T01:32:38.955Z,17.16
2023-05-13T01:35:05.307Z,17.12
2023-05-13T01:37:31.609Z,17.08
2023-05-13T01:39:57.972Z,17.03
2023-05-13T01:42:24.372Z,16.96
2023-05-13T01:44:50.692Z,16.89
2023-05-13T01:47:17.047Z,16.84
2023-05-13T01:49:44.087Z,16.81
2023-05-13T01:52:10.389Z,16.80
2023-05-13T01:54:36.720Z,16.79
2023-05-13T01:57:03.011Z,16.78
2023-05-13T01:59:29.431Z,16.76
2023-05-13T02:01:55.749Z,16.75
2023-05-13T02:04:22.127Z,16.72
2023-05-13T02:06:48.542Z,16.68
2023-05-13T02:09:14.841Z,16.62
2023-05-13T02:11:41.281Z,16.58
2023-05-13T02:14:07.614Z,16.55
2023-05-13T02:16:34.244Z,16.53
2023-05-13T02:19:00.733Z,16.51
2023-05-13T02:21:27.192Z,16.48
2023-05-13T02:23:53.540Z,16.44
2023-05-13T02:26:19.919Z,16.42
2023-05-13T02:28:46.223Z,16.38
2023-05-13T02:31:12.824Z,16.36
2023-05-13T02:33:39.166Z,16.34
2023-05-13T02:36:05.540Z,16.31
2023-05-13T02:38:32.013Z,16.27
2023-05-13T02:40:58.319Z,16.25
2023-05-13T02:46:11.324Z,16.18
2023-05-13T02:48:41.394Z,16.14
2023-05-13T02:51:12.139Z,16.11
2023-05-13T02:53:38.728Z,16.08
2023-05-13T02:56:05.039Z,16.07
2023-05-13T02:58:31.322Z,16.02
2023-05-13T03:00:57.789Z,15.98
2023-05-13T03:03:24.770Z,15.95
2023-05-13T03:05:51.335Z,15.92
2023-05-13T03:08:17.732Z,15.90
2023-05-13T03:10:44.362Z,15.87
2023-05-13T03:13:10.854Z,15.84
2023-05-13T03:15:37.194Z,15.78
2023-05-13T03:18:03.685Z,15.74
2023-05-13T03:20:30.526Z,15.70
2023-05-13T03:22:56.936Z,15.67
2023-05-13T03:25:23.252Z,15.64
2023-05-13T03:27:49.514Z,15.60
2023-05-13T03:30:17.306Z,15.56
2023-05-13T03:32:43.677Z,15.53
2023-05-13T03:35:10.047Z,15.52
2023-05-13T03:37:36.370Z,15.50
2023-05-13T03:40:02.764Z,15.49
2023-05-13T03:42:29.139Z,15.48
2023-05-13T03:44:55.501Z,15.44
2023-05-13T03:47:23.214Z,15.40
2023-05-13T03:49:49.703Z,15.37
2023-05-13T03:52:18.729Z,15.35
2023-05-13T03:54:48.865Z,15.33
2023-05-13T03:57:15.195Z,15.30
2023-05-13T03:59:41.552Z,15.28
2023-05-13T04:02:08.009Z,15.27
2023-05-13T04:04:34.549Z,15.25
2023-05-13T04:07:01.046Z,15.22
2023-05-13T04:09:27.545Z,15.19
2023-05-13T04:11:53.896Z,15.14
2023-05-13T04:14:20.215Z,15.12
2023-05-13T04:16:46.576Z,15.13
2023-05-13T04:19:13.127Z,15.14
2023-05-13T04:21:39.505Z,15.21
2023-05-13T04:24:05.863Z,15.33
2023-05-13T04:26:39.489Z,15.51
2023-05-13T04:29:05.807Z,15.69
2023-05-13T04:31:33.739Z,15.65
2023-05-13T04:34:00.204Z,15.65
2023-05-13T04:36:26.593Z,15.55
2023-05-13T04:38:53.073Z,15.44
2023-05-13T04:41:19.343Z,15.39
2023-05-13T04:43:45.627Z,15.37
2023-05-13T04:46:11.985Z,15.36
2023-05-13T04:48:38.300Z,15.36
2023-05-13T04:51:05.854Z,15.37
2023-05-13T04:53:32.608Z,15.40
2023-05-13T04:55:58.897Z,15.47
2023-05-13T04:58:25.443Z,15.62
2023-05-13T05:00:51.824Z,15.85
2023-05-13T05:03:18.121Z,16.08
2023-05-13T05:05:44.380Z,16.13
2023-05-13T05:08:10.653Z,16.31
2023-05-13T05:10:36.976Z,16.48
2023-05-13T05:13:03.223Z,16.61
2023-05-13T05:15:29.509Z,16.74
2023-05-13T05:17:56.218Z,16.85
2023-05-13T05:20:22.833Z,16.96
2023-05-13T05:22:49.293Z,17.08
2023-05-13T05:25:15.784Z,17.20
2023-05-13T05:27:42.558Z,17.32
2023-05-13T05:30:08.835Z,17.40
2023-05-13T05:32:35.241Z,17.53
2023-05-13T05:35:01.596Z,17.55
2023-05-13T05:37:27.911Z,17.72
2023-05-13T05:39:54.224Z,17.83
2023-05-13T05:42:20.483Z,17.72
2023-05-13T05:44:46.980Z,17.58
2023-05-13T05:47:13.392Z,17.71
2023-05-13T05:49:39.866Z,18.09
2023-05-13T05:52:06.737Z,18.36
2023-05-13T05:54:43.410Z,18.55
2023-05-13T05:57:11.287Z,18.73
2023-05-13T05:59:37.700Z,18.87
2023-05-13T06:02:09.048Z,19.01
2023-05-13T06:04:37.208Z,19.15
2023-05-13T06:07:03.645Z,19.28
2023-05-13T06:09:30.102Z,19.41
2023-05-13T06:11:56.447Z,19.55
2023-05-13T06:14:23.156Z,19.60
2023-05-13T06:16:49.431Z,19.82
2023-05-13T06:19:15.928Z,19.98
2023-05-13T06:21:43.027Z,20.11
2023-05-13T06:24:09.428Z,20.25
2023-05-13T06:26:35.724Z,20.39
2023-05-13T06:29:02.028Z,20.54
2023-05-13T06:31:28.437Z,20.69
2023-05-13T06:33:55.232Z,20.83
2023-05-13T06:36:21.641Z,20.98
2023-05-13T06:38:48.196Z,21.14
2023-05-13T06:41:14.615Z,21.29
2023-05-13T06:43:40.916Z,21.46
2023-05-13T06:46:07.270Z,21.63
2023-05-13T06:48:33.870Z,21.81
2023-05-13T06:51:00.286Z,21.97
2023-05-13T06:53:26.616Z,22.14
2023-05-13T06:55:52.897Z,22.37
2023-05-13T06:58:19.345Z,22.61
2023-05-13T07:00:45.735Z,22.84
2023-05-13T07:03:12.084Z,23.08
2023-05-13T07:05:38.378Z,23.29
2023-05-13T07:08:04.706Z,23.50
2023-05-13T07:13:11.867Z,23.91
2023-05-13T07:15:38.178Z,24.10
2023-05-13T07:18:04.736Z,24.27
2023-05-13T07:20:31.124Z,24.43
2023-05-13T07:22:57.419Z,24.60
2023-05-13T07:25:23.807Z,24.79
2023-05-13T07:27:50.406Z,24.99
2023-05-13T07:30:17.188Z,25.18
2023-05-13T07:32:43.718Z,25.39
2023-05-13T07:35:10.031Z,25.58
2023-05-13T07:37:36.568Z,25.77
2023-05-13T07:40:03.143Z,25.97
2023-05-13T07:42:29.490Z,26.19
2023-05-13T07:44:55.753Z,26.41
2023-05-13T07:47:22.230Z,26.65
2023-05-13T07:49:48.683Z,26.88
2023-05-13T07:52:15.030Z,27.10
2023-05-13T07:54:41.352Z,27.31
2023-05-13T07:57:07.787Z,27.50
2023-05-13T07:59:34.556Z,27.71
2023-05-13T08:02:00.818Z,27.91
2023-05-13T08:04:27.248Z,28.11
2023-05-13T08:06:53.562Z,28.19
2023-05-13T08:09:19.938Z,28.38
2023-05-13T08:11:46.276Z,28.60
2023-05-13T08:14:12.598Z,28.82
2023-05-13T08:16:39.128Z,29.04
2023-05-13T08:19:05.494Z,29.27
2023-05-13T08:21:31.822Z,29.47
2023-05-13T08:23:58.128Z,29.05
2023-05-13T08:26:24.520Z,28.60
2023-05-13T08:28:54.519Z,28.49
2023-05-13T08:31:21.435Z,28.24
2023-05-13T08:33:47.860Z,27.80
2023-05-13T08:36:14.214Z,27.62
2023-05-13T08:38:43.725Z,27.98
2023-05-13T08:41:10.101Z,29.05
2023-05-13T08:43:36.419Z,29.64
2023-05-13T08:46:02.802Z,29.60
2023-05-13T08:48:29.215Z,29.66
2023-05-13T08:50:55.662Z,29.87
2023-05-13T08:53:22.069Z,29.80
2023-05-13T08:55:48.459Z,29.35
2023-05-13T08:58:14.830Z,28.32
2023-05-13T09:00:41.096Z,27.74
2023-05-13T09:03:07.444Z,27.45
2023-05-13T09:05:34.657Z,27.28
2023-05-13T09:08:03.066Z,27.21
2023-05-13T09:10:29.481Z,27.18
2023-05-13T09:12:55.840Z,27.17
2023-05-13T09:15:22.390Z,27.16
2023-05-13T09:17:49.062Z,27.16
2023-05-13T09:20:19.593Z,27.15
2023-05-13T09:22:50.299Z,27.14
2023-05-13T09:25:16.706Z,27.17
2023-05-13T09:27:43.037Z,27.22
2023-05-13T09:30:09.353Z,27.28
2023-05-13T09:32:35.719Z,27.27
2023-05-13T09:35:02.138Z,27.27
2023-05-13T09:37:28.439Z,27.21
2023-05-13T09:39:54.825Z,27.14
2023-05-13T09:42:21.122Z,27.09
2023-05-13T09:44:47.445Z,27.01
2023-05-13T09:47:25.911Z,26.94
2023-05-13T09:49:53.057Z,26.86
2023-05-13T09:52:19.738Z,26.79
2023-05-13T09:54:46.045Z,26.73
2023-05-13T09:57:12.508Z,26.67
2023-05-13T09:59:38.814Z,26.61
2023-05-13T10:02:05.229Z,26.58
2023-05-13T10:04:31.615Z,26.56
2023-05-13T10:06:57.923Z,26.57
2023-05-13T10:09:24.233Z,26.53
2023-05-13T10:11:50.803Z,26.56
2023-05-13T10:14:17.249Z,26.59
2023-05-13T10:16:43.663Z,26.65
2023-05-13T10:19:10.243Z,26.67
2023-05-13T10:21:36.798Z,26.61
2023-05-13T10:24:03.058Z,26.58
2023-05-13T10:26:29.335Z,26.55
2023-05-13T10:28:55.840Z,26.53
2023-05-13T10:31:22.415Z,26.49
2023-05-13T10:33:48.744Z,26.45
2023-05-13T10:36:15.108Z,26.43
2023-05-13T10:38:41.555Z,26.39
2023-05-13T10:41:07.901Z,26.41
2023-05-13T10:43:34.390Z,26.40
2023-05-13T10:46:00.921Z,26.41
2023-05-13T10:48:27.370Z,26.45
2023-05-13T10:50:53.760Z,26.48
2023-05-13T10:53:20.028Z,26.51
2023-05-13T10:55:46.480Z,26.50
2023-05-13T10:58:12.836Z,26.44
2023-05-13T11:00:39.109Z,26.38
2023-05-13T11:03:05.509Z,26.30
2023-05-13T11:05:31.988Z,26.22
2023-05-13T11:07:58.419Z,26.15
2023-05-13T11:10:26.085Z,26.08
2023-05-13T11:12:52.393Z,26.02
2023-05-13T11:15:19.222Z,25.96
2023-05-13T11:17:45.555Z,25.91
2023-05-13T11:20:11.940Z,25.91
2023-05-13T11:22:38.415Z,25.92
2023-05-13T11:25:04.863Z,25.98
2023-05-13T11:27:31.236Z,26.00
2023-05-13T11:29:57.585Z,26.05
2023-05-13T11:32:24.008Z,26.05
2023-05-13T11:34:52.930Z,26.02
2023-05-13T11:37:22.813Z,25.99
2023-05-13T11:39:49.191Z,25.94
2023-05-13T11:42:15.618Z,25.92
2023-05-13T11:44:42.013Z,25.91
2023-05-13T11:47:08.374Z,25.91
2023-05-13T11:49:34.806Z,25.89
2023-05-13T11:52:01.235Z,25.88
2023-05-13T11:54:27.521Z,25.87
2023-05-13T11:56:53.930Z,25.85
2023-05-13T11:59:20.390Z,25.82
2023-05-13T12:01:46.734Z,25.80
2023-05-13T12:04:13.125Z,25.80
2023-05-13T12:06:39.628Z,25.76
2023-05-13T12:09:06.085Z,25.70
2023-05-13T12:11:32.592Z,25.64
2023-05-13T12:14:00.048Z,25.52
2023-05-13T12:16:26.523Z,25.54
2023-05-13T12:18:52.935Z,25.52
2023-05-13T12:21:19.345Z,25.48
2023-05-13T12:23:46.098Z,25.47
2023-05-13T12:26:12.540Z,25.46
2023-05-13T12:28:38.902Z,25.43
2023-05-13T12:31:05.267Z,25.42
2023-05-13T12:33:31.636Z,25.41
2023-05-13T12:35:58.093Z,25.39
2023-05-13T12:38:24.445Z,25.35
2023-05-13T12:40:50.754Z,25.35
2023-05-13T12:43:17.217Z,25.34
2023-05-13T12:45:44.876Z,25.30
2023-05-13T12:48:11.537Z,25.29
2023-05-13T12:50:38.002Z,25.27
2023-05-13T12:53:07.810Z,25.26
2023-05-13T12:55:34.186Z,25.21
2023-05-13T12:58:00.628Z,25.16
2023-05-13T13:00:27.040Z,25.12
2023-05-13T13:02:53.559Z,25.12
2023-05-13T13:05:20.185Z,25.14
2023-05-13T13:07:46.858Z,25.15
2023-05-13T13:10:13.152Z,25.16
2023-05-13T13:12:39.433Z,25.10
2023-05-13T13:15:05.882Z,25.05
2023-05-13T13:17:32.288Z,25.07
2023-05-13T13:19:58.848Z,25.09
2023-05-13T13:22:25.182Z,25.09
2023-05-13T13:24:51.523Z,25.07
2023-05-13T13:27:18.009Z,25.02
2023-05-13T13:29:44.325Z,25.02
2023-05-13T13:32:10.707Z,25.02
2023-05-13T13:34:37.089Z,25.01
2023-05-13T13:37:03.803Z,24.99
2023-05-13T13:39:30.297Z,24.95
2023-05-13T13:41:56.779Z,24.89
2023-05-13T13:44:24.268Z,24.94
2023-05-13T13:46:52.542Z,24.89
2023-05-13T13:49:23.574Z,24.88
2023-05-13T13:51:50.423Z,24.85
2023-05-13T13:54:16.834Z,24.81
2023-05-13T13:56:43.183Z,24.77
2023-05-13T13:59:09.556Z,24.75
2023-05-13T14:01:35.912Z,24.72
2023-05-13T14:04:02.320Z,24.68
2023-05-13T14:06:28.759Z,24.65
2023-05-13T14:08:55.121Z,24.62
2023-05-13T14:11:21.438Z,24.59
2023-05-13T14:13:47.996Z,24.56
2023-05-13T14:16:14.426Z,24.50
2023-05-13T14:18:40.871Z,24.47
2023-05-13T14:21:07.337Z,24.43
2023-05-13T14:23:38.208Z,24.40
2023-05-13T14:26:09.696Z,24.38
2023-05-13T14:31:02.972Z,24.32
2023-05-13T14:33:29.319Z,24.30
2023-05-13T14:35:55.682Z,24.27
2023-05-13T14:38:22.007Z,24.25
2023-05-13T14:40:48.485Z,24.23
2023-05-13T14:46:08.564Z,24.19
2023-05-13T14:48:37.770Z,24.17
2023-05-13T14:51:04.052Z,24.15
2023-05-13T14:53:30.386Z,24.11
2023-05-13T14:55:56.679Z,24.10
2023-05-13T14:58:23.009Z,24.09
2023-05-13T15:00:49.537Z,24.08
2023-05-13T15:03:15.959Z,24.07
2023-05-13T15:05:44.032Z,24.08
2023-05-13T15:08:10.828Z,24.09
2023-05-13T15:10:37.076Z,24.12
2023-05-13T15:13:03.442Z,24.09
2023-05-13T15:15:29.684Z,24.08
2023-05-13T15:17:56.031Z,24.06
2023-05-13T15:20:22.868Z,24.04
2023-05-13T15:22:49.411Z,24.01
2023-05-13T15:25:15.730Z,23.99
2023-05-13T15:27:43.040Z,23.96
2023-05-13T15:30:11.057Z,23.95
2023-05-13T15:32:37.726Z,23.93
2023-05-13T15:35:04.299Z,23.94
2023-05-13T15:37:30.593Z,23.94
2023-05-13T15:42:53.295Z,23.95
2023-05-13T15:45:19.743Z,23.93
2023-05-13T15:47:46.292Z,23.96
2023-05-13T15:50:13.020Z,24.00
2023-05-13T15:52:39.368Z,24.03
2023-05-13T15:55:05.900Z,24.05
2023-05-13T15:57:32.327Z,24.04
2023-05-13T15:59:58.653Z,24.03
2023-05-13T16:02:25.047Z,24.03
2023-05-13T16:04:51.511Z,24.03
2023-05-13T16:07:17.800Z,24.03
2023-05-13T16:09:44.188Z,24.04
2023-05-13T16:12:10.478Z,24.03
2023-05-13T16:14:36.797Z,24.05
2023-05-13T16:17:03.472Z,24.05
2023-05-13T16:19:29.775Z,24.07
2023-05-13T16:21:56.098Z,24.08
2023-05-13T16:24:22.498Z,24.08
2023-05-13T16:26:48.895Z,24.07
2023-05-13T16:29:15.375Z,24.07
2023-05-13T16:31:41.893Z,24.06
2023-05-13T16:34:08.248Z,24.04
2023-05-13T16:36:34.547Z,24.04
2023-05-13T16:39:00.871Z,24.04
2023-05-13T16:41:27.206Z,24.03
2023-05-13T16:43:53.497Z,24.02
2023-05-13T16:46:19.902Z,24.00
2023-05-13T16:48:46.285Z,24.00
2023-05-13T16:51:12.605Z,23.98
2023-05-13T16:53:38.968Z,23.98
2023-05-13T16:56:05.279Z,23.96
2023-05-13T16:58:32.310Z,23.94
2023-05-13T17:00:59.497Z,23.93
2023-05-13T17:03:26.188Z,23.92
2023-05-13T17:05:52.553Z,23.91
2023-05-13T17:08:18.903Z,23.89
2023-05-13T17:10:45.254Z,23.88
2023-05-13T17:13:11.676Z,23.86
2023-05-13T17:15:38.030Z,23.85
2023-05-13T17:18:04.886Z,23.83
2023-05-13T17:20:31.292Z,23.82
2023-05-13T17:22:57.672Z,23.81
2023-05-13T17:25:24.023Z,23.78
2023-05-13T17:27:50.489Z,23.77
2023-05-13T17:30:16.816Z,23.76
2023-05-13T17:32:43.141Z,23.75
2023-05-13T17:35:09.435Z,23.73
2023-05-13T17:37:35.780Z,23.71
2023-05-13T17:40:02.088Z,23.71
2023-05-13T17:42:28.471Z,23.68
2023-05-13T17:44:54.888Z,23.67
2023-05-13T17:47:21.189Z,23.66
2023-05-13T17:49:47.486Z,23.65
2023-05-13T17:52:13.770Z,23.64
2023-05-13T17:54:40.024Z,23.62
2023-05-13T17:57:06.588Z,23.61
2023-05-13T17:59:32.914Z,23.60
2023-05-13T18:02:00.595Z,23.58
2023-05-13T18:04:27.160Z,23.56
2023-05-13T18:06:53.711Z,23.54
2023-05-13T18:09:22.898Z,23.52
2023-05-13T18:11:51.424Z,23.51
2023-05-13T18:14:17.780Z,23.49
2023-05-13T18:16:44.185Z,23.47
2023-05-13T18:19:10.838Z,23.46
2023-05-13T18:21:37.367Z,23.43
2023-05-13T18:24:03.695Z,23.41
2023-05-13T18:26:29.976Z,23.40
2023-05-13T18:28:56.292Z,23.39
2023-05-13T18:31:22.816Z,23.36
2023-05-13T18:33:49.237Z,23.35
2023-05-13T18:36:15.561Z,23.33
2023-05-13T18:38:41.877Z,23.32
2023-05-13T18:41:08.151Z,23.30
2023-05-13T18:43:34.557Z,23.28
2023-05-13T18:46:00.902Z,23.26
2023-05-13T18:48:27.220Z,23.23
2023-05-13T18:50:56.353Z,23.21
2023-05-13T18:53:22.829Z,23.21
2023-05-13T18:55:49.072Z,23.17
2023-05-13T18:58:15.308Z,23.12
2023-05-13T19:00:41.613Z,23.09
2023-05-13T19:03:08.037Z,23.07
2023-05-13T19:05:34.691Z,23.04
2023-05-13T19:08:00.982Z,23.01
2023-05-13T19:10:27.250Z,22.99
2023-05-13T19:12:53.574Z,22.97
2023-05-13T19:15:19.909Z,22.94
2023-05-13T19:17:46.238Z,22.92
2023-05-13T19:20:12.665Z,22.89
2023-05-13T19:22:38.973Z,22.87
2023-05-13T19:25:05.301Z,22.85
2023-05-13T19:27:31.613Z,22.82
2023-05-13T19:29:57.941Z,22.80
2023-05-13T19:32:24.370Z,22.77
2023-05-13T19:34:50.724Z,22.76
2023-05-13T19:37:17.013Z,22.73
2023-05-13T19:39:43.249Z,22.71
2023-05-13T19:42:09.578Z,22.69
2023-05-13T19:44:35.837Z,22.65
2023-05-13T19:47:02.318Z,22.64
2023-05-13T19:49:28.886Z,22.63
2023-05-13T19:51:55.201Z,22.62
2023-05-13T19:54:21.437Z,22.60
2023-05-13T19:56:47.714Z,22.58
2023-05-13T19:59:14.205Z,22.57
2023-05-13T20:01:40.598Z,22.56
2023-05-13T20:04:07.118Z,22.54
2023-05-13T20:06:33.698Z,22.52
2023-05-13T20:08:59.947Z,22.51
2023-05-13T20:11:26.247Z,22.49
2023-05-13T20:13:52.540Z,22.48
2023-05-13T20:16:18.838Z,22.47
2023-05-13T20:18:45.285Z,22.45
2023-05-13T20:21:12.534Z,22.38
2023-05-13T20:23:38.849Z,22.42
2023-05-13T20:26:05.110Z,22.39
2023-05-13T20:28:31.526Z,22.37
2023-05-13T20:30:57.827Z,22.35
2023-05-13T20:33:24.148Z,22.34
2023-05-13T20:35:50.407Z,22.32
2023-05-13T20:38:16.676Z,22.30
2023-05-13T20:40:43.243Z,22.29
2023-05-13T20:43:09.542Z,22.27
2023-05-13T20:45:35.928Z,22.26
2023-05-13T20:48:02.319Z,22.23
2023-05-13T20:50:31.751Z,22.23
2023-05-13T20:52:58.102Z,22.21
2023-05-13T20:55:24.412Z,22.19
2023-05-13T20:57:50.727Z,22.16
2023-05-13T21:00:17.010Z,22.16
2023-05-13T21:02:43.318Z,22.14
2023-05-13T21:05:09.641Z,22.12
2023-05-13T21:07:35.927Z,22.11
2023-05-13T21:10:02.223Z,22.09
2023-05-13T21:12:28.555Z,22.03
2023-05-13T21:14:57.266Z,22.06
2023-05-13T21:17:23.973Z,22.04
2023-05-13T21:19:50.256Z,22.03
2023-05-13T21:22:16.676Z,22.01
2023-05-13T21:24:43.030Z,22.00
2023-05-13T21:27:09.359Z,21.98
2023-05-13T21:29:35.741Z,21.96
2023-05-13T21:32:05.372Z,21.94
2023-05-13T21:34:31.924Z,21.94
2023-05-13T21:36:58.643Z,21.92
2023-05-13T21:39:27.583Z,21.90
2023-05-13T21:41:54.055Z,21.89
2023-05-13T21:44:20.343Z,21.85
2023-05-13T21:46:46.686Z,21.78
2023-05-13T21:49:13.111Z,21.69
2023-05-13T21:51:39.718Z,21.60
2023-05-13T21:54:06.060Z,21.48
2023-05-13T21:56:32.518Z,21.37
2023-05-13T21:58:58.800Z,21.25
2023-05-13T22:01:27.588Z,21.14
2023-05-13T22:03:54.337Z,21.06
2023-05-13T22:06:29.792Z,20.98
2023-05-13T22:08:57.028Z,20.90
2023-05-13T22:11:23.406Z,20.82
2023-05-13T22:13:50.343Z,20.75
2023-05-13T22:16:24.046Z,20.66
2023-05-13T22:18:50.769Z,20.61
2023-05-13T22:21:17.204Z,20.54
2023-05-13T22:23:43.484Z,20.47
2023-05-13T22:26:09.774Z,20.41
2023-05-13T22:28:36.013Z,20.36
2023-05-13T22:31:02.310Z,20.29
2023-05-13T22:33:28.777Z,20.23
2023-05-13T22:35:55.054Z,20.15
2023-05-13T22:38:21.578Z,20.08
2023-05-13T22:40:47.854Z,20.03
2023-05-13T22:43:14.114Z,19.96
2023-05-13T22:45:40.423Z,19.88
2023-05-13T22:48:06.796Z,19.80
2023-05-13T22:50:33.259Z,19.73
2023-05-13T22:52:59.574Z,19.66
2023-05-13T22:55:25.886Z,19.61
2023-05-13T22:57:52.269Z,19.54
2023-05-13T23:00:18.560Z,19.47
2023-05-13T23:02:44.856Z,19.43
2023-05-13T23:05:14.260Z,19.37
2023-05-13T23:07:40.632Z,19.31
2023-05-13T23:10:07.044Z,19.24
2023-05-13T23:12:33.615Z,19.19
2023-05-13T23:15:00.105Z,19.15
2023-05-13T23:17:26.652Z,19.09
2023-05-13T23:19:52.970Z,19.04
2023-05-13T23:22:19.308Z,19.00
2023-05-13T23:24:45.623Z,18.96
2023-05-13T23:27:11.981Z,18.83
2023-05-13T23:29:38.429Z,18.85
2023-05-13T23:32:06.577Z,18.81
2023-05-13T23:34:33.347Z,18.76
2023-05-13T23:37:00.169Z,18.73
2023-05-13T23:39:26.536Z,18.67
2023-05-13T23:41:52.811Z,18.61
2023-05-13T23:44:19.411Z,18.53
2023-05-13T23:46:46.388Z,18.47
2023-05-13T23:49:12.648Z,18.42
2023-05-13T23:51:38.947Z,18.37
2023-05-13T23:54:05.333Z,18.33
2023-05-13T23:56:31.684Z,18.28
2023-05-13T23:58:58.089Z,18.24
